createdAt,value
2019-04-03T00:01:27.576Z,100115.05
2019-04-03T00:04:00.211Z,100115.50
2019-04-03T00:06:33.723Z,100108.34
2019-04-03T00:09:09.020Z,100115.21
2019-04-03T00:11:43.116Z,100113.44
2019-04-03T00:14:15.295Z,100109.42
2019-04-03T00:16:47.856Z,100108.10
2019-04-03T00:19:20.374Z,100106.72
2019-04-03T00:21:52.935Z,100108.44
2019-04-03T00:24:25.554Z,100103.96
2019-04-03T00:26:58.700Z,100099.17
2019-04-03T00:29:31.314Z,100102.16
2019-04-03T00:32:03.802Z,100099.90
2019-04-03T00:34:36.300Z,100104.28
2019-04-03T00:37:08.880Z,100106.42
2019-04-03T00:39:41.520Z,100106.41
2019-04-03T00:42:14.055Z,100102.83
2019-04-03T00:44:46.286Z,100101.45
2019-04-03T00:47:19.731Z,100094.77
2019-04-03T00:49:52.341Z,100098.29
2019-04-03T00:52:25.876Z,100095.66
2019-04-03T00:54:59.375Z,100093.94
2019-04-03T00:57:32.336Z,100097.22
2019-04-03T01:00:10.630Z,100092.41
2019-04-03T01:02:43.965Z,100088.98
2019-04-03T01:05:16.493Z,100087.66
2019-04-03T01:07:49.037Z,100093.55
2019-04-03T01:10:21.370Z,100084.79
2019-04-03T01:12:53.872Z,100081.30
2019-04-03T01:15:26.996Z,100076.39
2019-04-03T01:17:59.564Z,100078.53
2019-04-03T01:20:32.114Z,100072.71
2019-04-03T01:23:06.909Z,100074.44
2019-04-03T01:25:39.640Z,100077.85
2019-04-03T01:28:12.333Z,100072.95
2019-04-03T01:30:48.112Z,100072.87
2019-04-03T01:33:20.548Z,100073.63
2019-04-03T01:35:53.493Z,100070.04
2019-04-03T01:38:26.260Z,100064.88
2019-04-03T01:40:58.877Z,100062.13
2019-04-03T01:43:31.348Z,100066.86
2019-04-03T01:46:03.982Z,100057.20
2019-04-03T01:48:36.434Z,100056.73
2019-04-03T01:51:08.610Z,100057.05
2019-04-03T01:53:41.324Z,100059.05
2019-04-03T01:56:13.933Z,100060.63
2019-04-03T01:58:46.378Z,100058.82
2019-04-03T02:01:19.124Z,100058.70
2019-04-03T02:03:51.707Z,100059.54
2019-04-03T02:06:23.878Z,100056.82
2019-04-03T02:08:56.437Z,100051.94
2019-04-03T02:11:29.083Z,100050.14
2019-04-03T02:14:01.647Z,100045.20
2019-04-03T02:16:35.540Z,100049.85
2019-04-03T02:19:07.748Z,100044.64
2019-04-03T02:21:40.268Z,100045.11
2019-04-03T02:24:12.709Z,100041.50
2019-04-03T02:26:45.232Z,100042.81
2019-04-03T02:29:17.671Z,100044.47
2019-04-03T02:31:52.924Z,100043.16
2019-04-03T02:34:24.414Z,100041.33
2019-04-03T02:36:56.971Z,100033.55
2019-04-03T02:39:29.552Z,100040.36
2019-04-03T02:42:02.235Z,100040.68
2019-04-03T02:44:34.831Z,100036.69
2019-04-03T02:47:07.373Z,100037.48
2019-04-03T02:49:42.710Z,100033.55
2019-04-03T02:52:14.161Z,100032.78
2019-04-03T02:54:48.172Z,100034.38
2019-04-03T02:57:20.834Z,100031.98
2019-04-03T02:59:57.691Z,100031.03
2019-04-03T03:02:27.719Z,100032.34
2019-04-03T03:05:00.241Z,100036.09
2019-04-03T03:07:36.334Z,100031.17
2019-04-03T03:10:09.649Z,100027.11
2019-04-03T03:12:43.461Z,100033.56
2019-04-03T03:15:16.616Z,100030.33
2019-04-03T03:17:50.217Z,100028.94
2019-04-03T03:20:25.462Z,100035.34
2019-04-03T03:22:59.510Z,100027.45
2019-04-03T03:25:33.679Z,100026.43
2019-04-03T03:28:06.897Z,100021.95
2019-04-03T03:30:46.768Z,100027.06
2019-04-03T03:33:32.414Z,100020.02
2019-04-03T03:35:50.820Z,100018.15
2019-04-03T03:38:27.281Z,100019.83
2019-04-03T03:40:59.215Z,100023.23
2019-04-03T03:43:37.049Z,100020.24
2019-04-03T03:46:06.853Z,100016.31
2019-04-03T03:48:42.074Z,100017.03
2019-04-03T03:51:15.887Z,100013.83
2019-04-03T03:53:50.423Z,100013.22
2019-04-03T03:56:23.504Z,100016.58
2019-04-03T03:58:55.821Z,100013.59
2019-04-03T04:01:31.008Z,100008.17
2019-04-03T04:04:03.214Z,100005.09
2019-04-03T04:06:36.641Z,100009.68
2019-04-03T04:09:09.583Z,100009.96
2019-04-03T04:11:42.288Z,100009.83
2019-04-03T04:14:16.238Z,100006.81
2019-04-03T04:16:49.194Z,100004.22
2019-04-03T04:19:22.979Z,100007.16
2019-04-03T04:21:56.184Z,100009.22
2019-04-03T04:24:28.853Z,100002.13
2019-04-03T04:27:03.179Z,100008.63
2019-04-03T04:29:35.949Z,100005.48
2019-04-03T04:32:08.461Z,99998.12
2019-04-03T04:34:41.035Z,100005.08
2019-04-03T04:37:13.643Z,100001.00
2019-04-03T04:39:46.095Z,100010.00
2019-04-03T04:42:18.988Z,100004.36
2019-04-03T04:44:51.323Z,100005.97
2019-04-03T04:47:23.853Z,100013.45
2019-04-03T04:49:56.406Z,100005.41
2019-04-03T04:52:30.051Z,100003.44
2019-04-03T04:55:02.961Z,100012.36
2019-04-03T04:57:35.598Z,100010.78
2019-04-03T05:00:09.262Z,100011.27
2019-04-03T05:02:41.509Z,100007.08
2019-04-03T05:05:14.063Z,100007.69
2019-04-03T05:07:46.674Z,100013.56
2019-04-03T05:10:19.248Z,100005.17
2019-04-03T05:12:51.721Z,100013.61
2019-04-03T05:15:24.115Z,100009.93
2019-04-03T05:17:57.699Z,100012.41
2019-04-03T05:20:31.282Z,100008.41
2019-04-03T05:23:03.883Z,100006.48
2019-04-03T05:25:37.448Z,100005.40
2019-04-03T05:28:09.938Z,100005.82
2019-04-03T05:30:42.422Z,100005.64
2019-04-03T05:33:14.681Z,100001.67
2019-04-03T05:35:47.243Z,100005.06
2019-04-03T05:38:21.703Z,100002.00
2019-04-03T05:40:54.698Z,99998.45
2019-04-03T05:43:30.387Z,99994.94
2019-04-03T05:46:02.309Z,100000.52
2019-04-03T05:48:35.024Z,99992.94
2019-04-03T05:51:07.480Z,99987.19
2019-04-03T05:53:40.180Z,99987.03
2019-04-03T05:56:12.753Z,99982.53
2019-04-03T05:58:55.586Z,99991.55
2019-04-03T06:01:20.371Z,99985.72
2019-04-03T06:03:53.245Z,99985.09
2019-04-03T06:06:26.060Z,99985.05
2019-04-03T06:08:58.646Z,99979.66
2019-04-03T06:11:31.064Z,99982.48
2019-04-03T06:14:03.317Z,99981.09
2019-04-03T06:16:35.877Z,99981.75
2019-04-03T06:19:08.209Z,99976.64
2019-04-03T06:21:40.868Z,99974.62
2019-04-03T06:24:17.783Z,99975.61
2019-04-03T06:27:01.477Z,99976.22
2019-04-03T06:32:47.012Z,99967.27
2019-04-03T06:35:20.112Z,99973.50
2019-04-03T06:37:54.393Z,99970.81
2019-04-03T06:40:28.327Z,99961.84
2019-04-03T06:43:07.785Z,99961.59
2019-04-03T06:45:56.878Z,99959.48
2019-04-03T06:48:25.500Z,99952.34
2019-04-03T06:50:58.223Z,99953.27
2019-04-03T06:53:36.256Z,99956.50
2019-04-03T06:56:30.590Z,99947.58
2019-04-03T06:59:18.357Z,99950.49
2019-04-03T07:01:54.869Z,99948.44
2019-04-03T07:04:34.005Z,99944.61
2019-04-03T07:07:13.579Z,99945.42
2019-04-03T07:09:58.816Z,99943.77
2019-04-03T07:12:38.834Z,99937.36
2019-04-03T07:15:59.578Z,99938.67
2019-04-03T07:18:24.090Z,99933.75
2019-04-03T07:21:20.713Z,99932.64
2019-04-03T07:24:14.422Z,99932.83
2019-04-03T07:26:53.173Z,99932.92
2019-04-03T07:29:31.801Z,99921.17
2019-04-03T07:32:28.588Z,99920.31
2019-04-03T07:42:24.576Z,99925.63
2019-04-03T07:44:57.970Z,99922.98
2019-04-03T07:50:36.979Z,99924.31
2019-04-03T10:54:09.221Z,99722.80
2019-04-03T11:25:25.141Z,99707.08
2019-04-03T12:40:32.756Z,99637.53
2019-04-03T12:43:51.311Z,99641.47
2019-04-03T12:46:47.953Z,99631.55
2019-04-03T12:49:33.763Z,99626.29
2019-04-03T12:52:43.233Z,99625.80
2019-04-03T12:59:30.301Z,99613.89
2019-04-03T13:05:24.265Z,99618.34
2019-04-03T13:08:24.074Z,99614.98
2019-04-03T13:11:06.189Z,99607.23
2019-04-03T13:13:47.372Z,99606.26
2019-04-03T13:16:41.790Z,99614.64
2019-04-03T13:43:53.177Z,99597.87
2019-04-03T13:47:09.260Z,99589.17
2019-04-03T13:56:53.836Z,99586.94
2019-04-03T14:07:02.519Z,99572.08
2019-04-03T14:17:05.467Z,99566.75
2019-04-03T14:20:36.071Z,99562.02
2019-04-03T14:23:10.350Z,99554.88
2019-04-03T14:29:40.582Z,99558.91
2019-04-03T14:32:55.278Z,99559.47
2019-04-03T14:36:05.172Z,99547.19
2019-04-03T14:39:02.396Z,99550.80
2019-04-03T14:45:21.062Z,99544.30
2019-04-03T14:48:17.280Z,99552.39
2019-04-03T14:54:19.845Z,99540.16
2019-04-03T14:57:11.116Z,99545.30
2019-04-03T14:59:48.824Z,99545.69
2019-04-03T15:05:48.033Z,99537.44
2019-04-03T15:11:46.008Z,99541.32
2019-04-03T15:14:29.482Z,99542.35
2019-04-03T15:17:11.588Z,99544.52
2019-04-03T15:23:26.059Z,99526.06
2019-04-03T15:26:14.235Z,99530.16
2019-04-03T15:29:05.432Z,99526.00
2019-04-03T15:34:55.339Z,99534.41
2019-04-03T15:37:53.649Z,99536.90
2019-04-03T15:40:43.718Z,99531.99
2019-04-03T15:43:21.610Z,99524.77
2019-04-03T15:46:12.378Z,99529.23
2019-04-03T15:48:53.457Z,99520.36
2019-04-03T15:51:41.966Z,99520.89
2019-04-03T15:54:25.852Z,99524.45
2019-04-03T16:06:49.856Z,99520.91
2019-04-03T16:09:42.574Z,99518.02
2019-04-03T16:19:32.597Z,99530.44
2019-04-03T16:39:07.054Z,99526.50
2019-04-03T16:41:54.813Z,99523.84
2019-04-03T16:44:48.096Z,99520.55
2019-04-03T16:47:51.756Z,99514.28
2019-04-03T16:57:47.503Z,99512.44
